sensor_id;sensor_type;location;lat;lon;timestamp;P1;durP1;ratioP1;P2;durP2;ratioP2
35693;SDS011;21812;55.536;37.664;2023-03-16T00:00:23;10.43;;;9.23;;
35693;SDS011;21812;55.536;37.664;2023-03-16T00:02:49;12.02;;;8.27;;
35693;SDS011;21812;55.536;37.664;2023-03-16T00:05:15;11.02;;;9.57;;
35693;SDS011;21812;55.536;37.664;2023-03-16T00:07:40;9.93;;;8.45;;
35693;SDS011;21812;55.536;37.664;2023-03-16T00:10:07;13.23;;;9.15;;
35693;SDS011;21812;55.536;37.664;2023-03-16T00:12:36;10.02;;;9.00;;
35693;SDS011;21812;55.536;37.664;2023-03-16T00:15:02;7.70;;;6.40;;
35693;SDS011;21812;55.536;37.664;2023-03-16T00:17:28;8.73;;;7.78;;
35693;SDS011;21812;55.536;37.664;2023-03-16T00:19:55;11.77;;;9.38;;
35693;SDS011;21812;55.536;37.664;2023-03-16T00:22:22;15.73;;;9.95;;
35693;SDS011;21812;55.536;37.664;2023-03-16T00:24:49;13.70;;;11.07;;
35693;SDS011;21812;55.536;37.664;2023-03-16T00:27:16;11.88;;;10.25;;
35693;SDS011;21812;55.536;37.664;2023-03-16T00:29:43;11.73;;;10.52;;
35693;SDS011;21812;55.536;37.664;2023-03-16T00:32:16;13.23;;;11.85;;
35693;SDS011;21812;55.536;37.664;2023-03-16T00:34:44;13.60;;;11.50;;
35693;SDS011;21812;55.536;37.664;2023-03-16T00:37:14;16.83;;;11.05;;
35693;SDS011;21812;55.536;37.664;2023-03-16T00:39:41;14.93;;;11.23;;
35693;SDS011;21812;55.536;37.664;2023-03-16T00:42:11;13.35;;;11.10;;
35693;SDS011;21812;55.536;37.664;2023-03-16T00:44:39;13.65;;;11.05;;
35693;SDS011;21812;55.536;37.664;2023-03-16T00:47:06;15.70;;;11.02;;
35693;SDS011;21812;55.536;37.664;2023-03-16T00:49:35;13.90;;;9.27;;
35693;SDS011;21812;55.536;37.664;2023-03-16T00:52:01;12.05;;;10.55;;
35693;SDS011;21812;55.536;37.664;2023-03-16T00:54:33;10.00;;;8.18;;
35693;SDS011;21812;55.536;37.664;2023-03-16T00:56:59;10.43;;;8.57;;
35693;SDS011;21812;55.536;37.664;2023-03-16T00:59:26;12.75;;;10.07;;
35693;SDS011;21812;55.536;37.664;2023-03-16T01:01:52;11.23;;;9.68;;
35693;SDS011;21812;55.536;37.664;2023-03-16T01:04:18;11.20;;;9.32;;
35693;SDS011;21812;55.536;37.664;2023-03-16T01:06:47;13.88;;;9.55;;
35693;SDS011;21812;55.536;37.664;2023-03-16T01:09:13;13.88;;;10.43;;
35693;SDS011;21812;55.536;37.664;2023-03-16T01:11:40;11.90;;;10.02;;
35693;SDS011;21812;55.536;37.664;2023-03-16T01:14:09;17.95;;;9.38;;
35693;SDS011;21812;55.536;37.664;2023-03-16T01:16:35;12.38;;;9.07;;
35693;SDS011;21812;55.536;37.664;2023-03-16T01:19:01;10.15;;;8.95;;
35693;SDS011;21812;55.536;37.664;2023-03-16T01:21:27;12.57;;;6.97;;
35693;SDS011;21812;55.536;37.664;2023-03-16T01:23:53;12.10;;;8.07;;
35693;SDS011;21812;55.536;37.664;2023-03-16T01:26:19;13.32;;;9.15;;
35693;SDS011;21812;55.536;37.664;2023-03-16T01:28:47;10.13;;;6.80;;
35693;SDS011;21812;55.536;37.664;2023-03-16T01:31:14;8.15;;;6.47;;
35693;SDS011;21812;55.536;37.664;2023-03-16T01:33:40;9.02;;;7.72;;
35693;SDS011;21812;55.536;37.664;2023-03-16T01:36:13;6.80;;;5.78;;
35693;SDS011;21812;55.536;37.664;2023-03-16T01:38:54;11.13;;;7.70;;
35693;SDS011;21812;55.536;37.664;2023-03-16T01:41:21;14.27;;;8.35;;
35693;SDS011;21812;55.536;37.664;2023-03-16T01:43:47;9.20;;;7.15;;
35693;SDS011;21812;55.536;37.664;2023-03-16T01:46:14;12.60;;;8.82;;
35693;SDS011;21812;55.536;37.664;2023-03-16T01:51:27;10.02;;;6.57;;
35693;SDS011;21812;55.536;37.664;2023-03-16T01:54:00;8.55;;;7.05;;
35693;SDS011;21812;55.536;37.664;2023-03-16T01:56:50;8.82;;;7.25;;
35693;SDS011;21812;55.536;37.664;2023-03-16T01:59:35;11.73;;;9.02;;
35693;SDS011;21812;55.536;37.664;2023-03-16T02:02:05;8.93;;;4.15;;
35693;SDS011;21812;55.536;37.664;2023-03-16T02:07:08;9.00;;;6.70;;
35693;SDS011;21812;55.536;37.664;2023-03-16T02:09:36;9.88;;;6.50;;
35693;SDS011;21812;55.536;37.664;2023-03-16T02:12:07;9.88;;;6.55;;
35693;SDS011;21812;55.536;37.664;2023-03-16T02:14:38;10.70;;;7.95;;
35693;SDS011;21812;55.536;37.664;2023-03-16T02:17:04;7.43;;;6.47;;
35693;SDS011;21812;55.536;37.664;2023-03-16T02:19:34;9.07;;;7.63;;
35693;SDS011;21812;55.536;37.664;2023-03-16T02:22:08;9.75;;;5.95;;
35693;SDS011;21812;55.536;37.664;2023-03-16T02:24:35;8.40;;;5.90;;
35693;SDS011;21812;55.536;37.664;2023-03-16T02:27:06;10.63;;;7.05;;
35693;SDS011;21812;55.536;37.664;2023-03-16T02:32:23;5.78;;;5.18;;
35693;SDS011;21812;55.536;37.664;2023-03-16T02:34:52;8.30;;;7.45;;
35693;SDS011;21812;55.536;37.664;2023-03-16T02:37:19;15.77;;;6.00;;
35693;SDS011;21812;55.536;37.664;2023-03-16T02:39:47;7.72;;;6.50;;
35693;SDS011;21812;55.536;37.664;2023-03-16T02:42:16;9.95;;;7.05;;
35693;SDS011;21812;55.536;37.664;2023-03-16T02:44:46;10.40;;;7.80;;
35693;SDS011;21812;55.536;37.664;2023-03-16T02:47:28;8.82;;;6.28;;
35693;SDS011;21812;55.536;37.664;2023-03-16T02:49:55;9.77;;;4.70;;
35693;SDS011;21812;55.536;37.664;2023-03-16T02:52:21;8.98;;;7.43;;
35693;SDS011;21812;55.536;37.664;2023-03-16T02:54:47;8.13;;;7.10;;
35693;SDS011;21812;55.536;37.664;2023-03-16T02:57:12;9.32;;;6.60;;
35693;SDS011;21812;55.536;37.664;2023-03-16T02:59:38;9.10;;;7.57;;
35693;SDS011;21812;55.536;37.664;2023-03-16T03:02:04;8.38;;;6.65;;
35693;SDS011;21812;55.536;37.664;2023-03-16T03:04:30;9.57;;;7.43;;
35693;SDS011;21812;55.536;37.664;2023-03-16T03:06:57;6.80;;;6.07;;
35693;SDS011;21812;55.536;37.664;2023-03-16T03:09:32;9.68;;;7.53;;
35693;SDS011;21812;55.536;37.664;2023-03-16T03:11:58;9.68;;;8.18;;
35693;SDS011;21812;55.536;37.664;2023-03-16T03:14:24;8.70;;;7.18;;
35693;SDS011;21812;55.536;37.664;2023-03-16T03:16:52;9.57;;;7.60;;
35693;SDS011;21812;55.536;37.664;2023-03-16T03:19:20;11.95;;;7.55;;
35693;SDS011;21812;55.536;37.664;2023-03-16T03:21:48;9.32;;;7.40;;
35693;SDS011;21812;55.536;37.664;2023-03-16T03:24:14;11.82;;;9.45;;
35693;SDS011;21812;55.536;37.664;2023-03-16T03:26:41;8.85;;;7.95;;
35693;SDS011;21812;55.536;37.664;2023-03-16T03:29:15;10.82;;;8.20;;
35693;SDS011;21812;55.536;37.664;2023-03-16T03:31:41;16.27;;;8.95;;
35693;SDS011;21812;55.536;37.664;2023-03-16T03:34:06;10.50;;;8.73;;
35693;SDS011;21812;55.536;37.664;2023-03-16T03:36:34;14.15;;;8.20;;
35693;SDS011;21812;55.536;37.664;2023-03-16T03:38:59;12.63;;;8.52;;
35693;SDS011;21812;55.536;37.664;2023-03-16T03:41:30;17.33;;;8.40;;
35693;SDS011;21812;55.536;37.664;2023-03-16T03:44:00;11.57;;;6.93;;
35693;SDS011;21812;55.536;37.664;2023-03-16T03:46:26;13.35;;;8.30;;
35693;SDS011;21812;55.536;37.664;2023-03-16T03:48:51;12.43;;;8.13;;
35693;SDS011;21812;55.536;37.664;2023-03-16T03:51:17;10.57;;;6.63;;
35693;SDS011;21812;55.536;37.664;2023-03-16T03:53:59;18.67;;;8.13;;
35693;SDS011;21812;55.536;37.664;2023-03-16T03:56:47;14.43;;;7.35;;
35693;SDS011;21812;55.536;37.664;2023-03-16T03:59:15;9.45;;;7.00;;
35693;SDS011;21812;55.536;37.664;2023-03-16T04:01:59;7.85;;;7.03;;
35693;SDS011;21812;55.536;37.664;2023-03-16T04:04:34;7.78;;;6.00;;
35693;SDS011;21812;55.536;37.664;2023-03-16T04:07:00;12.25;;;6.57;;
35693;SDS011;21812;55.536;37.664;2023-03-16T04:09:26;10.90;;;7.47;;
35693;SDS011;21812;55.536;37.664;2023-03-16T04:11:52;12.95;;;8.25;;
35693;SDS011;21812;55.536;37.664;2023-03-16T04:14:22;9.13;;;6.50;;
35693;SDS011;21812;55.536;37.664;2023-03-16T04:16:48;11.80;;;6.60;;
35693;SDS011;21812;55.536;37.664;2023-03-16T04:19:14;8.45;;;6.28;;
35693;SDS011;21812;55.536;37.664;2023-03-16T04:21:40;40.17;;;11.68;;
35693;SDS011;21812;55.536;37.664;2023-03-16T04:24:06;16.55;;;7.68;;
35693;SDS011;21812;55.536;37.664;2023-03-16T04:26:34;11.07;;;6.63;;
35693;SDS011;21812;55.536;37.664;2023-03-16T04:29:01;23.17;;;8.60;;
35693;SDS011;21812;55.536;37.664;2023-03-16T04:31:28;21.77;;;9.57;;
35693;SDS011;21812;55.536;37.664;2023-03-16T04:33:54;17.33;;;7.20;;
35693;SDS011;21812;55.536;37.664;2023-03-16T04:36:21;11.68;;;6.95;;
35693;SDS011;21812;55.536;37.664;2023-03-16T04:38:50;15.13;;;6.32;;
35693;SDS011;21812;55.536;37.664;2023-03-16T04:41:16;12.82;;;5.43;;
35693;SDS011;21812;55.536;37.664;2023-03-16T04:43:57;17.42;;;5.68;;
35693;SDS011;21812;55.536;37.664;2023-03-16T04:46:24;14.25;;;6.18;;
35693;SDS011;21812;55.536;37.664;2023-03-16T04:48:52;16.30;;;6.15;;
35693;SDS011;21812;55.536;37.664;2023-03-16T04:51:18;6.15;;;4.75;;
35693;SDS011;21812;55.536;37.664;2023-03-16T04:53:56;7.90;;;5.50;;
35693;SDS011;21812;55.536;37.664;2023-03-16T04:56:28;7.88;;;5.25;;
35693;SDS011;21812;55.536;37.664;2023-03-16T04:58:58;8.15;;;4.88;;
35693;SDS011;21812;55.536;37.664;2023-03-16T05:01:28;10.70;;;4.22;;
35693;SDS011;21812;55.536;37.664;2023-03-16T05:03:57;4.45;;;3.70;;
35693;SDS011;21812;55.536;37.664;2023-03-16T05:06:23;6.60;;;4.20;;
35693;SDS011;21812;55.536;37.664;2023-03-16T05:08:48;10.10;;;4.82;;
35693;SDS011;21812;55.536;37.664;2023-03-16T05:11:14;8.50;;;4.20;;
35693;SDS011;21812;55.536;37.664;2023-03-16T05:13:50;4.25;;;3.63;;
35693;SDS011;21812;55.536;37.664;2023-03-16T05:16:18;5.03;;;3.90;;
35693;SDS011;21812;55.536;37.664;2023-03-16T05:18:44;6.85;;;4.80;;
35693;SDS011;21812;55.536;37.664;2023-03-16T05:21:10;5.80;;;3.70;;
35693;SDS011;21812;55.536;37.664;2023-03-16T05:23:56;6.80;;;4.45;;
35693;SDS011;21812;55.536;37.664;2023-03-16T05:26:22;5.57;;;4.72;;
35693;SDS011;21812;55.536;37.664;2023-03-16T05:28:50;4.60;;;3.80;;
35693;SDS011;21812;55.536;37.664;2023-03-16T05:31:18;6.28;;;4.45;;
35693;SDS011;21812;55.536;37.664;2023-03-16T05:33:49;6.63;;;3.80;;
35693;SDS011;21812;55.536;37.664;2023-03-16T05:36:18;3.95;;;3.45;;
35693;SDS011;21812;55.536;37.664;2023-03-16T05:38:48;5.43;;;4.72;;
35693;SDS011;21812;55.536;37.664;2023-03-16T05:41:23;5.43;;;4.30;;
35693;SDS011;21812;55.536;37.664;2023-03-16T05:44:18;4.47;;;3.70;;
35693;SDS011;21812;55.536;37.664;2023-03-16T05:47:00;5.30;;;4.15;;
35693;SDS011;21812;55.536;37.664;2023-03-16T05:49:26;5.90;;;4.20;;
35693;SDS011;21812;55.536;37.664;2023-03-16T05:51:52;5.75;;;2.83;;
35693;SDS011;21812;55.536;37.664;2023-03-16T05:54:19;4.93;;;3.53;;
35693;SDS011;21812;55.536;37.664;2023-03-16T05:56:46;6.43;;;4.60;;
35693;SDS011;21812;55.536;37.664;2023-03-16T05:59:13;4.40;;;3.65;;
35693;SDS011;21812;55.536;37.664;2023-03-16T06:01:40;4.50;;;4.07;;
35693;SDS011;21812;55.536;37.664;2023-03-16T06:04:07;8.48;;;4.78;;
35693;SDS011;21812;55.536;37.664;2023-03-16T06:06:37;5.03;;;4.50;;
35693;SDS011;21812;55.536;37.664;2023-03-16T06:09:13;6.38;;;5.10;;
35693;SDS011;21812;55.536;37.664;2023-03-16T06:11:40;9.30;;;4.18;;
35693;SDS011;21812;55.536;37.664;2023-03-16T06:14:05;3.53;;;3.10;;
35693;SDS011;21812;55.536;37.664;2023-03-16T06:16:31;9.00;;;4.93;;
35693;SDS011;21812;55.536;37.664;2023-03-16T06:18:57;4.60;;;3.13;;
35693;SDS011;21812;55.536;37.664;2023-03-16T06:21:23;3.78;;;3.47;;
35693;SDS011;21812;55.536;37.664;2023-03-16T06:23:52;7.43;;;4.60;;
35693;SDS011;21812;55.536;37.664;2023-03-16T06:26:19;5.38;;;4.60;;
35693;SDS011;21812;55.536;37.664;2023-03-16T06:28:48;5.32;;;4.63;;
35693;SDS011;21812;55.536;37.664;2023-03-16T06:31:14;5.03;;;4.25;;
35693;SDS011;21812;55.536;37.664;2023-03-16T06:33:43;6.13;;;4.38;;
35693;SDS011;21812;55.536;37.664;2023-03-16T06:36:08;6.30;;;4.63;;
35693;SDS011;21812;55.536;37.664;2023-03-16T06:38:39;5.82;;;4.68;;
35693;SDS011;21812;55.536;37.664;2023-03-16T06:41:28;8.25;;;5.93;;
35693;SDS011;21812;55.536;37.664;2023-03-16T06:43:53;12.10;;;5.80;;
35693;SDS011;21812;55.536;37.664;2023-03-16T06:46:19;7.35;;;5.13;;
35693;SDS011;21812;55.536;37.664;2023-03-16T06:48:45;10.98;;;6.50;;
35693;SDS011;21812;55.536;37.664;2023-03-16T06:51:12;8.30;;;5.40;;
35693;SDS011;21812;55.536;37.664;2023-03-16T06:53:38;7.60;;;5.32;;
35693;SDS011;21812;55.536;37.664;2023-03-16T06:56:04;12.73;;;6.57;;
35693;SDS011;21812;55.536;37.664;2023-03-16T06:58:35;9.25;;;6.53;;
35693;SDS011;21812;55.536;37.664;2023-03-16T07:01:01;10.25;;;7.72;;
35693;SDS011;21812;55.536;37.664;2023-03-16T07:03:28;15.25;;;9.52;;
35693;SDS011;21812;55.536;37.664;2023-03-16T07:05:59;12.82;;;8.68;;
35693;SDS011;21812;55.536;37.664;2023-03-16T07:08:25;23.48;;;11.30;;
35693;SDS011;21812;55.536;37.664;2023-03-16T07:10:51;16.63;;;10.30;;
35693;SDS011;21812;55.536;37.664;2023-03-16T07:13:18;14.18;;;9.75;;
35693;SDS011;21812;55.536;37.664;2023-03-16T07:15:44;15.98;;;9.63;;
35693;SDS011;21812;55.536;37.664;2023-03-16T07:18:10;12.70;;;9.90;;
35693;SDS011;21812;55.536;37.664;2023-03-16T07:20:39;10.73;;;8.43;;
35693;SDS011;21812;55.536;37.664;2023-03-16T07:23:05;11.50;;;9.77;;
35693;SDS011;21812;55.536;37.664;2023-03-16T07:25:32;11.07;;;9.07;;
35693;SDS011;21812;55.536;37.664;2023-03-16T07:27:58;9.35;;;6.88;;
35693;SDS011;21812;55.536;37.664;2023-03-16T07:30:29;8.00;;;6.57;;
35693;SDS011;21812;55.536;37.664;2023-03-16T07:32:55;8.32;;;6.35;;
35693;SDS011;21812;55.536;37.664;2023-03-16T07:35:22;8.68;;;6.35;;
35693;SDS011;21812;55.536;37.664;2023-03-16T07:37:48;9.18;;;6.70;;
35693;SDS011;21812;55.536;37.664;2023-03-16T07:40:14;6.93;;;5.93;;
35693;SDS011;21812;55.536;37.664;2023-03-16T07:42:41;10.75;;;6.47;;
35693;SDS011;21812;55.536;37.664;2023-03-16T07:45:21;9.35;;;6.78;;
35693;SDS011;21812;55.536;37.664;2023-03-16T07:47:47;7.47;;;6.65;;
35693;SDS011;21812;55.536;37.664;2023-03-16T07:50:36;8.55;;;6.72;;
35693;SDS011;21812;55.536;37.664;2023-03-16T07:53:01;9.85;;;7.30;;
35693;SDS011;21812;55.536;37.664;2023-03-16T07:55:29;10.45;;;7.68;;
35693;SDS011;21812;55.536;37.664;2023-03-16T07:57:57;8.90;;;7.15;;
35693;SDS011;21812;55.536;37.664;2023-03-16T08:00:28;8.40;;;7.50;;
35693;SDS011;21812;55.536;37.664;2023-03-16T08:02:54;9.43;;;6.82;;
35693;SDS011;21812;55.536;37.664;2023-03-16T08:05:21;10.82;;;7.53;;
35693;SDS011;21812;55.536;37.664;2023-03-16T08:07:52;9.48;;;7.32;;
35693;SDS011;21812;55.536;37.664;2023-03-16T08:10:22;9.85;;;7.55;;
35693;SDS011;21812;55.536;37.664;2023-03-16T08:12:54;10.20;;;6.43;;
35693;SDS011;21812;55.536;37.664;2023-03-16T08:15:20;8.13;;;6.93;;
35693;SDS011;21812;55.536;37.664;2023-03-16T08:17:47;8.43;;;6.45;;
35693;SDS011;21812;55.536;37.664;2023-03-16T08:20:18;7.57;;;6.28;;
35693;SDS011;21812;55.536;37.664;2023-03-16T08:22:45;8.45;;;6.53;;
35693;SDS011;21812;55.536;37.664;2023-03-16T08:25:14;8.93;;;7.30;;
35693;SDS011;21812;55.536;37.664;2023-03-16T08:27:50;12.50;;;7.40;;
35693;SDS011;21812;55.536;37.664;2023-03-16T08:30:16;8.15;;;6.90;;
35693;SDS011;21812;55.536;37.664;2023-03-16T08:32:48;7.75;;;6.60;;
35693;SDS011;21812;55.536;37.664;2023-03-16T08:35:15;8.13;;;6.90;;
35693;SDS011;21812;55.536;37.664;2023-03-16T08:37:41;8.98;;;7.65;;
35693;SDS011;21812;55.536;37.664;2023-03-16T08:40:08;10.00;;;8.98;;
35693;SDS011;21812;55.536;37.664;2023-03-16T08:42:38;9.95;;;7.43;;
35693;SDS011;21812;55.536;37.664;2023-03-16T08:45:07;12.52;;;8.98;;
35693;SDS011;21812;55.536;37.664;2023-03-16T08:47:38;11.25;;;8.02;;
35693;SDS011;21812;55.536;37.664;2023-03-16T08:50:09;11.02;;;8.23;;
35693;SDS011;21812;55.536;37.664;2023-03-16T08:52:37;12.07;;;9.18;;
35693;SDS011;21812;55.536;37.664;2023-03-16T08:55:03;11.27;;;9.20;;
35693;SDS011;21812;55.536;37.664;2023-03-16T08:57:31;11.88;;;8.95;;
35693;SDS011;21812;55.536;37.664;2023-03-16T08:59:58;12.13;;;8.07;;
35693;SDS011;21812;55.536;37.664;2023-03-16T09:02:24;13.88;;;10.30;;
35693;SDS011;21812;55.536;37.664;2023-03-16T09:04:50;12.32;;;8.98;;
35693;SDS011;21812;55.536;37.664;2023-03-16T09:07:17;10.48;;;8.10;;
35693;SDS011;21812;55.536;37.664;2023-03-16T09:09:43;12.43;;;9.02;;
35693;SDS011;21812;55.536;37.664;2023-03-16T09:12:09;15.48;;;8.80;;
35693;SDS011;21812;55.536;37.664;2023-03-16T09:14:36;11.70;;;8.80;;
35693;SDS011;21812;55.536;37.664;2023-03-16T09:17:02;9.25;;;8.23;;
35693;SDS011;21812;55.536;37.664;2023-03-16T09:19:29;12.25;;;9.27;;
35693;SDS011;21812;55.536;37.664;2023-03-16T09:21:56;9.80;;;8.25;;
35693;SDS011;21812;55.536;37.664;2023-03-16T09:24:22;11.82;;;8.85;;
35693;SDS011;21812;55.536;37.664;2023-03-16T09:26:48;10.90;;;8.57;;
35693;SDS011;21812;55.536;37.664;2023-03-16T09:29:14;9.77;;;7.93;;
35693;SDS011;21812;55.536;37.664;2023-03-16T09:31:40;10.23;;;9.10;;
35693;SDS011;21812;55.536;37.664;2023-03-16T09:34:07;10.95;;;8.35;;
35693;SDS011;21812;55.536;37.664;2023-03-16T09:36:33;9.10;;;7.32;;
35693;SDS011;21812;55.536;37.664;2023-03-16T09:38:59;10.93;;;7.85;;
35693;SDS011;21812;55.536;37.664;2023-03-16T09:47:09;10.05;;;8.88;;
35693;SDS011;21812;55.536;37.664;2023-03-16T09:49:37;11.45;;;8.88;;
35693;SDS011;21812;55.536;37.664;2023-03-16T09:57:48;9.15;;;7.80;;
35693;SDS011;21812;55.536;37.664;2023-03-16T10:05:51;10.40;;;8.43;;
35693;SDS011;21812;55.536;37.664;2023-03-16T10:08:24;10.50;;;8.43;;
35693;SDS011;21812;55.536;37.664;2023-03-16T10:16:39;12.10;;;9.63;;
35693;SDS011;21812;55.536;37.664;2023-03-16T10:19:12;13.50;;;9.18;;
35693;SDS011;21812;55.536;37.664;2023-03-16T10:21:43;11.98;;;9.93;;
35693;SDS011;21812;55.536;37.664;2023-03-16T10:24:36;11.07;;;9.15;;
35693;SDS011;21812;55.536;37.664;2023-03-16T10:27:23;13.25;;;9.43;;
35693;SDS011;21812;55.536;37.664;2023-03-16T10:29:54;10.98;;;9.82;;
35693;SDS011;21812;55.536;37.664;2023-03-16T10:32:20;9.88;;;8.73;;
35693;SDS011;21812;55.536;37.664;2023-03-16T10:35:01;11.68;;;8.85;;
35693;SDS011;21812;55.536;37.664;2023-03-16T10:37:31;12.00;;;10.15;;
35693;SDS011;21812;55.536;37.664;2023-03-16T10:39:57;14.23;;;9.60;;
35693;SDS011;21812;55.536;37.664;2023-03-16T10:42:25;15.18;;;10.18;;
35693;SDS011;21812;55.536;37.664;2023-03-16T10:44:58;12.18;;;10.43;;
35693;SDS011;21812;55.536;37.664;2023-03-16T10:47:27;11.63;;;10.00;;
35693;SDS011;21812;55.536;37.664;2023-03-16T10:49:55;12.07;;;10.02;;
35693;SDS011;21812;55.536;37.664;2023-03-16T10:54:57;12.40;;;9.52;;
35693;SDS011;21812;55.536;37.664;2023-03-16T10:57:32;12.48;;;9.88;;
35693;SDS011;21812;55.536;37.664;2023-03-16T11:00:03;12.32;;;9.82;;
35693;SDS011;21812;55.536;37.664;2023-03-16T11:02:37;17.90;;;10.93;;
35693;SDS011;21812;55.536;37.664;2023-03-16T11:05:12;13.45;;;10.20;;
35693;SDS011;21812;55.536;37.664;2023-03-16T11:07:57;13.27;;;10.05;;
35693;SDS011;21812;55.536;37.664;2023-03-16T11:10:33;11.52;;;9.73;;
35693;SDS011;21812;55.536;37.664;2023-03-16T11:13:02;11.95;;;8.95;;
35693;SDS011;21812;55.536;37.664;2023-03-16T11:18:30;13.15;;;9.23;;
35693;SDS011;21812;55.536;37.664;2023-03-16T11:21:05;14.25;;;10.20;;
35693;SDS011;21812;55.536;37.664;2023-03-16T11:23:38;12.15;;;9.73;;
35693;SDS011;21812;55.536;37.664;2023-03-16T11:26:12;15.18;;;10.70;;
35693;SDS011;21812;55.536;37.664;2023-03-16T11:28:59;14.23;;;10.77;;
35693;SDS011;21812;55.536;37.664;2023-03-16T11:31:38;14.75;;;10.95;;
35693;SDS011;21812;55.536;37.664;2023-03-16T11:34:17;13.75;;;10.75;;
35693;SDS011;21812;55.536;37.664;2023-03-16T11:36:48;14.02;;;10.93;;
35693;SDS011;21812;55.536;37.664;2023-03-16T11:39:26;14.15;;;10.45;;
35693;SDS011;21812;55.536;37.664;2023-03-16T11:44:53;10.90;;;8.07;;
35693;SDS011;21812;55.536;37.664;2023-03-16T11:47:45;15.32;;;8.13;;
35693;SDS011;21812;55.536;37.664;2023-03-16T11:53:22;12.18;;;9.35;;
35693;SDS011;21812;55.536;37.664;2023-03-16T12:15:40;15.00;;;10.65;;
35693;SDS011;21812;55.536;37.664;2023-03-16T12:20:41;14.18;;;10.35;;
35693;SDS011;21812;55.536;37.664;2023-03-16T12:23:26;15.80;;;11.40;;
35693;SDS011;21812;55.536;37.664;2023-03-16T12:25:57;14.25;;;11.48;;
35693;SDS011;21812;55.536;37.664;2023-03-16T12:28:25;17.55;;;11.52;;
35693;SDS011;21812;55.536;37.664;2023-03-16T12:36:21;16.45;;;10.80;;
35693;SDS011;21812;55.536;37.664;2023-03-16T12:39:06;11.88;;;9.98;;
35693;SDS011;21812;55.536;37.664;2023-03-16T12:44:32;14.45;;;10.57;;
35693;SDS011;21812;55.536;37.664;2023-03-16T12:50:08;13.00;;;9.48;;
35693;SDS011;21812;55.536;37.664;2023-03-16T12:52:46;13.82;;;9.65;;
35693;SDS011;21812;55.536;37.664;2023-03-16T12:55:15;15.30;;;10.77;;
35693;SDS011;21812;55.536;37.664;2023-03-16T12:57:57;12.80;;;9.60;;
35693;SDS011;21812;55.536;37.664;2023-03-16T13:03:00;12.80;;;10.25;;
35693;SDS011;21812;55.536;37.664;2023-03-16T13:05:33;13.63;;;10.38;;
35693;SDS011;21812;55.536;37.664;2023-03-16T13:08:04;13.80;;;10.80;;
35693;SDS011;21812;55.536;37.664;2023-03-16T13:10:33;13.73;;;10.65;;
35693;SDS011;21812;55.536;37.664;2023-03-16T13:13:15;13.43;;;9.30;;
35693;SDS011;21812;55.536;37.664;2023-03-16T13:15:42;15.60;;;9.90;;
35693;SDS011;21812;55.536;37.664;2023-03-16T13:20:49;11.88;;;9.25;;
35693;SDS011;21812;55.536;37.664;2023-03-16T13:23:21;13.20;;;9.20;;
35693;SDS011;21812;55.536;37.664;2023-03-16T13:28:31;13.45;;;8.50;;
35693;SDS011;21812;55.536;37.664;2023-03-16T13:31:00;11.68;;;8.93;;
35693;SDS011;21812;55.536;37.664;2023-03-16T13:33:27;12.25;;;9.18;;
35693;SDS011;21812;55.536;37.664;2023-03-16T13:35:58;11.73;;;9.13;;
35693;SDS011;21812;55.536;37.664;2023-03-16T13:38:25;11.05;;;8.95;;
35693;SDS011;21812;55.536;37.664;2023-03-16T13:40:53;14.75;;;9.57;;
35693;SDS011;21812;55.536;37.664;2023-03-16T13:43:22;12.43;;;8.80;;
35693;SDS011;21812;55.536;37.664;2023-03-16T13:45:53;10.38;;;8.00;;
35693;SDS011;21812;55.536;37.664;2023-03-16T13:48:19;9.82;;;8.27;;
35693;SDS011;21812;55.536;37.664;2023-03-16T13:50:49;10.95;;;8.65;;
35693;SDS011;21812;55.536;37.664;2023-03-16T13:53:21;10.60;;;8.38;;
35693;SDS011;21812;55.536;37.664;2023-03-16T13:55:55;8.90;;;7.80;;
35693;SDS011;21812;55.536;37.664;2023-03-16T13:58:23;13.90;;;9.32;;
35693;SDS011;21812;55.536;37.664;2023-03-16T14:00:59;13.30;;;9.45;;
35693;SDS011;21812;55.536;37.664;2023-03-16T14:03:34;12.38;;;9.00;;
35693;SDS011;21812;55.536;37.664;2023-03-16T14:06:05;13.70;;;8.95;;
35693;SDS011;21812;55.536;37.664;2023-03-16T14:08:31;14.80;;;9.07;;
35693;SDS011;21812;55.536;37.664;2023-03-16T14:10:58;18.00;;;12.07;;
35693;SDS011;21812;55.536;37.664;2023-03-16T14:15:58;20.05;;;12.35;;
35693;SDS011;21812;55.536;37.664;2023-03-16T14:18:35;22.02;;;13.27;;
35693;SDS011;21812;55.536;37.664;2023-03-16T14:21:09;25.70;;;14.48;;
35693;SDS011;21812;55.536;37.664;2023-03-16T14:23:42;22.40;;;14.00;;
35693;SDS011;21812;55.536;37.664;2023-03-16T14:26:10;19.45;;;13.40;;
35693;SDS011;21812;55.536;37.664;2023-03-16T14:28:38;27.98;;;16.17;;
35693;SDS011;21812;55.536;37.664;2023-03-16T14:31:11;28.40;;;16.70;;
35693;SDS011;21812;55.536;37.664;2023-03-16T14:33:40;25.88;;;15.45;;
35693;SDS011;21812;55.536;37.664;2023-03-16T14:36:11;26.92;;;17.10;;
35693;SDS011;21812;55.536;37.664;2023-03-16T14:38:39;29.83;;;17.15;;
35693;SDS011;21812;55.536;37.664;2023-03-16T14:43:38;29.15;;;18.25;;
35693;SDS011;21812;55.536;37.664;2023-03-16T14:46:12;29.33;;;16.60;;
35693;SDS011;21812;55.536;37.664;2023-03-16T14:48:41;30.15;;;16.88;;
35693;SDS011;21812;55.536;37.664;2023-03-16T14:51:12;31.00;;;19.15;;
35693;SDS011;21812;55.536;37.664;2023-03-16T14:53:38;28.80;;;17.75;;
35693;SDS011;21812;55.536;37.664;2023-03-16T14:56:09;32.83;;;18.58;;
35693;SDS011;21812;55.536;37.664;2023-03-16T14:58:38;30.23;;;17.05;;
35693;SDS011;21812;55.536;37.664;2023-03-16T15:01:04;30.83;;;17.60;;
35693;SDS011;21812;55.536;37.664;2023-03-16T15:03:34;27.63;;;17.92;;
35693;SDS011;21812;55.536;37.664;2023-03-16T15:06:00;24.52;;;16.77;;
35693;SDS011;21812;55.536;37.664;2023-03-16T15:08:30;27.25;;;17.17;;
35693;SDS011;21812;55.536;37.664;2023-03-16T15:10:58;29.83;;;18.25;;
35693;SDS011;21812;55.536;37.664;2023-03-16T15:13:26;31.33;;;17.23;;
35693;SDS011;21812;55.536;37.664;2023-03-16T15:16:01;29.67;;;16.42;;
35693;SDS011;21812;55.536;37.664;2023-03-16T15:18:28;32.83;;;17.92;;
35693;SDS011;21812;55.536;37.664;2023-03-16T15:20:54;26.40;;;16.23;;
35693;SDS011;21812;55.536;37.664;2023-03-16T15:23:22;29.30;;;18.20;;
35693;SDS011;21812;55.536;37.664;2023-03-16T15:25:49;27.27;;;16.95;;
35693;SDS011;21812;55.536;37.664;2023-03-16T15:30:44;26.27;;;17.25;;
35693;SDS011;21812;55.536;37.664;2023-03-16T15:33:20;30.35;;;18.33;;
35693;SDS011;21812;55.536;37.664;2023-03-16T15:35:47;25.50;;;15.15;;
35693;SDS011;21812;55.536;37.664;2023-03-16T15:38:21;25.67;;;16.60;;
35693;SDS011;21812;55.536;37.664;2023-03-16T15:40:50;27.10;;;16.63;;
35693;SDS011;21812;55.536;37.664;2023-03-16T15:43:18;25.40;;;17.05;;
35693;SDS011;21812;55.536;37.664;2023-03-16T15:45:47;26.45;;;17.95;;
35693;SDS011;21812;55.536;37.664;2023-03-16T15:48:13;23.15;;;15.73;;
35693;SDS011;21812;55.536;37.664;2023-03-16T15:50:41;28.60;;;16.83;;
35693;SDS011;21812;55.536;37.664;2023-03-16T15:53:12;23.60;;;16.67;;
35693;SDS011;21812;55.536;37.664;2023-03-16T15:55:45;23.67;;;15.80;;
35693;SDS011;21812;55.536;37.664;2023-03-16T15:58:15;29.50;;;16.73;;
35693;SDS011;21812;55.536;37.664;2023-03-16T16:00:49;25.02;;;17.80;;
35693;SDS011;21812;55.536;37.664;2023-03-16T16:03:14;25.70;;;16.73;;
35693;SDS011;21812;55.536;37.664;2023-03-16T16:05:40;26.77;;;17.77;;
35693;SDS011;21812;55.536;37.664;2023-03-16T16:08:06;25.60;;;16.55;;